Latest Coastal Weather Observations for Kiama

IDN60701

Issued at 9:15 am EDT Saturday 1 November 2014 (issued every 10 minutes, with the page automatically refreshed every 10 minutes)

About coastal observations | Map of coastal stations | Coastal observations for NSW | Marine services | Other Formats
Station Details ID: 068242 Name: KIAMA (BOMBO HEADLAND) Lat: -34.65 Lon: 150.86 Height: 15.5 m
Data from the previous 72 hours. | See also: Recent months at Kiama
Date/Time
EDT
Temp

°C
Wind Pressure Rain
since 9am
mm
Weather Cloud Vis
km
Sea
Height
m
Swell
Dir
 
Speed
knots
Gust
knots
hPa Trend Height
m
Period
s
Dir
01/09:00am 26.2 NE 10 12 - - 0.0 - - - - - - -
01/08:30am 26.8 NNE 7 9 - - 0.0 - - - - - - -
01/08:00am 25.9 N 6 12 - - 0.0 - - - - - - -
01/07:30am 25.4 N 12 16 - - 0.0 - - - - - - -
01/07:00am 25.7 NNW 8 11 - - 0.0 - - - - - - -
01/06:30am 25.5 NNW 6 10 - - 0.0 - - - - - - -
01/06:00am 24.2 WNW 4 6 - - 0.0 - - - - - - -
01/05:30am 24.2 NW 3 6 - - 0.0 - - - - - - -
01/05:00am 24.0 WNW 7 11 - - 0.0 - - - - - - -
01/04:30am 22.8 NW 5 8 - - 0.0 - - - - - - -
01/04:00am 20.4 NE 5 9 - - 0.0 - - - - - - -
01/03:30am 18.9 NW 3 5 - - 0.0 - - - - - - -
01/03:00am 18.9 NNW 3 5 - - 0.0 - - - - - - -
01/02:30am 18.6 NNW 2 3 - - 0.0 - - - - - - -
01/02:00am 18.9 N 6 8 - - 0.0 - - - - - - -
01/01:30am 19.1 NNW 2 4 - - 0.0 - - - - - - -
01/01:00am 19.5 N 5 7 - - 0.0 - - - - - - -
01/12:30am 19.9 N 7 11 - - 0.0 - - - - - - -
01/12:00am 19.9 N 9 11 - - 0.0 - - - - - - -
 
Date/Time
EDT
Temp

°C
Wind Pressure Rain
since 9am
mm
Weather Cloud Vis
km
Sea
Height
m
Swell
Dir
 
Speed
knots
Gust
knots
hPa Trend Height
m
Period
s
Dir
31/11:30pm 19.9 N 8 11 - - 0.0 - - - - - - -
31/11:00pm 19.8 N 9 11 - - 0.0 - - - - - - -
31/10:30pm 19.5 N 7 8 - - 0.0 - - - - - - -
31/10:00pm 19.5 N 6 8 - - 0.0 - - - - - - -
31/09:30pm 19.5 N 5 6 - - 0.0 - - - - - - -
31/09:00pm 20.0 N 5 8 - - 0.0 - - - - - - -
31/08:30pm 20.1 N 6 7 - - 0.0 - - - - - - -
31/08:00pm 20.4 N 6 7 - - 0.0 - - - - - - -
31/07:30pm 20.8 N 5 7 - - 0.0 - - - - - - -
31/07:00pm 21.1 N 4 6 - - 0.0 - - - - - - -
31/06:30pm 22.1 NNE 7 10 - - 0.0 - - - - - - -
31/06:00pm 22.5 NNE 8 11 - - 0.0 - - - - - - -
31/05:30pm 22.5 N 10 13 - - 0.0 - - - - - - -
31/05:00pm 23.1 N 9 13 - - 0.0 - - - - - - -
31/04:30pm 23.5 N 9 13 - - 0.0 - - - - - - -
31/04:00pm 23.6 N 12 18 - - 0.0 - - - - - - -
31/03:30pm 23.4 N 11 16 - - 0.0 - - - - - - -
31/03:00pm 23.4 NNE 9 13 - - 0.0 - - - - - - -
31/02:30pm 23.8 NNE 5 9 - - 0.0 - - - - - - -
31/02:00pm 22.9 NNE 8 11 - - 0.0 - - - - - - -
31/01:30pm 22.8 NNE 8 12 - - 0.0 - - - - - - -
31/01:00pm 22.4 NE 7 9 - - 0.0 - - - - - - -
31/12:30pm 21.9 NE 7 9 - - 0.0 - - - - - - -
31/12:00pm 21.2 NE 6 7 - - 0.0 - - - - - - -
31/11:30am 21.5 NE 3 5 - - 0.0 - - - - - - -
31/11:00am 21.2 ESE 2 4 - - 0.0 - - - - - - -
31/10:30am 20.5 SE 4 4 - - 0.0 - - - - - - -
31/10:00am 20.3 SE 4 5 - - 0.0 - - - - - - -
31/09:30am 19.6 SSE 4 5 - - 0.0 - - - - - - -
31/09:00am 19.6 SE 3 3 - - 0.0 - - - - - - -
31/08:30am 20.1 ENE 1 2 - - 0.0 - - - - - - -
31/08:00am 19.3 CALM 0 1 - - 0.0 - - - - - - -
31/07:30am 18.2 CALM 0 0 - - 0.0 - - - - - - -
31/07:00am 17.4 CALM 0 0 - - 0.0 - - - - - - -
31/06:30am 15.3 CALM 0 0 - - 0.0 - - - - - - -
31/06:00am 15.0 CALM 0 0 - - 0.0 - - - - - - -
31/05:30am 14.9 CALM 0 0 - - 0.0 - - - - - - -
31/05:00am 15.0 CALM 0 0 - - 0.0 - - - - - - -
31/04:30am 15.0 WSW 1 2 - - 0.0 - - - - - - -
31/04:00am 15.7 CALM 0 0 - - 0.0 - - - - - - -
31/03:30am 16.0 CALM 0 0 - - 0.0 - - - - - - -
31/03:00am 15.5 WSW 2 4 - - 0.0 - - - - - - -
31/02:30am 15.6 CALM 0 0 - - 0.0 - - - - - - -
31/02:00am 15.8 CALM 0 0 - - 0.0 - - - - - - -
31/01:30am 16.3 CALM 0 0 - - 0.0 - - - - - - -
31/01:00am 16.4 CALM 0 3 - - 0.0 - - - - - - -
31/12:30am 17.2 CALM 0 2 - - 0.0 - - - - - - -
31/12:00am 18.4 ESE 1 4 - - 0.0 - - - - - - -
 
Date/Time
EDT
Temp

°C
Wind Pressure Rain
since 9am
mm
Weather Cloud Vis
km
Sea
Height
m
Swell
Dir
 
Speed
knots
Gust
knots
hPa Trend Height
m
Period
s
Dir
30/11:30pm 17.6 CALM 0 3 - - 0.0 - - - - - - -
30/11:00pm 17.4 CALM 0 2 - - 0.0 - - - - - - -
30/10:30pm 17.7 N 2 3 - - 0.0 - - - - - - -
30/10:00pm 18.8 WNW 5 7 - - 0.0 - - - - - - -
30/09:30pm 18.8 WNW 6 8 - - 0.0 - - - - - - -
30/09:00pm 18.9 NW 4 5 - - 0.0 - - - - - - -
30/08:30pm 19.5 NW 3 5 - - 0.0 - - - - - - -
30/08:00pm 19.9 N 3 5 - - 0.0 - - - - - - -
30/07:30pm 20.6 N 3 4 - - 0.0 - - - - - - -
30/07:00pm 21.5 NNE 1 3 - - 0.0 - - - - - - -
30/06:30pm 22.7 NNE 2 4 - - 0.0 - - - - - - -
30/06:00pm 23.4 N 1 3 - - 0.0 - - - - - - -
30/05:30pm 22.9 NNE 2 3 - - 0.0 - - - - - - -
30/05:00pm 23.4 ENE 2 3 - - 0.0 - - - - - - -
30/04:30pm 23.3 ENE 2 3 - - 0.0 - - - - - - -
30/04:00pm 22.9 SSE 2 3 - - 0.0 - - - - - - -
30/03:30pm 23.4 SE 2 4 - - 0.0 - - - - - - -
30/03:00pm 23.4 E 4 5 - - 0.0 - - - - - - -
30/02:30pm 22.8 SE 2 4 - - 0.0 - - - - - - -
30/02:00pm 23.8 E 4 6 - - 0.0 - - - - - - -
30/01:30pm 23.6 NE 5 8 - - 0.0 - - - - - - -
30/01:00pm 25.7 E 6 10 - - 0.0 - - - - - - -
30/12:30pm 24.3 NE 9 11 - - 0.0 - - - - - - -
30/12:00pm 26.4 S 6 13 - - 0.0 - - - - - - -
30/11:30am 26.6 WSW 7 15 - - 0.0 - - - - - - -
30/11:00am 23.6 NE 4 6 - - 0.0 - - - - - - -
30/10:30am 25.9 W 6 10 - - 0.0 - - - - - - -
30/10:00am 25.0 WNW 4 8 - - 0.0 - - - - - - -
30/09:30am 24.2 NW 5 8 - - 0.0 - - - - - - -
30/09:00am 23.1 N 7 11 - - 0.0 - - - - - - -
30/08:30am 20.6 N 5 8 - - 0.0 - - - - - - -
30/08:00am 18.4 N 1 3 - - 0.0 - - - - - - -
30/07:30am 16.7 NNW 1 2 - - 0.0 - - - - - - -
30/07:00am 15.5 NW 4 5 - - 0.0 - - - - - - -
30/06:30am 15.2 NNW 4 5 - - 0.0 - - - - - - -
30/06:00am 15.3 NNW 4 6 - - 0.0 - - - - - - -
30/05:30am 15.5 NNW 4 5 - - 0.0 - - - - - - -
30/05:00am 16.3 NNW 6 7 - - 0.0 - - - - - - -
30/04:30am 16.6 NNW 5 8 - - 0.0 - - - - - - -
30/04:00am 17.1 N 5 8 - - 0.0 - - - - - - -
30/03:30am 17.6 N 7 13 - - 0.0 - - - - - - -
30/03:00am 18.1 N 12 15 - - 0.0 - - - - - - -
30/02:30am 18.3 N 12 15 - - 0.0 - - - - - - -
30/02:00am 18.5 N 12 16 - - 0.0 - - - - - - -
30/01:30am 18.5 N 10 14 - - 0.0 - - - - - - -
30/01:00am 18.5 N 10 14 - - 0.0 - - - - - - -
30/12:30am 18.7 N 12 15 - - 0.0 - - - - - - -
30/12:00am 18.8 N 13 17 - - 0.0 - - - - - - -
 
Date/Time
EDT
Temp

°C
Wind Pressure Rain
since 9am
mm
Weather Cloud Vis
km
Sea
Height
m
Swell
Dir
 
Speed
knots
Gust
knots
hPa Trend Height
m
Period
s
Dir
29/11:30pm 18.7 N 12 16 - - 0.0 - - - - - - -
29/11:00pm 18.7 N 13 17 - - 0.0 - - - - - - -
29/10:30pm 18.9 N 14 17 - - 0.0 - - - - - - -
29/10:00pm 18.8 N 11 18 - - 0.0 - - - - - - -
29/09:30pm 18.6 N 12 17 - - 0.0 - - - - - - -
29/09:00pm 18.7 NNE 15 19 - - 0.0 - - - - - - -
29/08:30pm 18.6 NNE 13 18 - - 0.0 - - - - - - -
29/08:00pm 18.5 NNE 14 18 - - 0.0 - - - - - - -
29/07:30pm 18.4 NNE 13 18 - - 0.0 - - - - - - -
29/07:00pm 18.4 NNE 14 17 - - 0.0 - - - - - - -
29/06:30pm 18.4 NNE 13 18 - - 0.0 - - - - - - -
29/06:00pm 18.4 NNE 11 16 - - 0.0 - - - - - - -
29/05:30pm 18.6 NNE 10 14 - - 0.0 - - - - - - -
29/05:00pm 18.5 NNE 11 17 - - 0.0 - - - - - - -
29/04:30pm 18.5 NE 12 16 - - 0.0 - - - - - - -
29/04:00pm 18.5 NE 11 15 - - 0.0 - - - - - - -
29/03:30pm 18.7 NE 12 14 - - 0.0 - - - - - - -
29/03:00pm 18.8 NE 10 14 - - 0.0 - - - - - - -
29/02:30pm 19.3 NE 7 11 - - 0.0 - - - - - - -
29/02:00pm 20.6 ENE 8 11 - - 0.0 - - - - - - -
29/01:30pm 20.6 ENE 6 9 - - 0.0 - - - - - - -
29/01:00pm 21.4 E 7 9 - - 0.0 - - - - - - -
29/12:30pm 21.1 E 6 9 - - 0.0 - - - - - - -
29/12:00pm 21.1 E 6 9 - - 0.0 - - - - - - -
29/11:00am 19.6 SE 7 8 - - 0.0 - - - - - - -
29/10:30am 19.9 SE 6 8 - - 0.0 - - - - - - -
29/10:00am 19.9 SE 5 7 - - 0.0 - - - - - - -
29/09:30am 19.3 SSE 6 7 - - 0.0 - - - - - - -

Other Formats:

Comma delimited format used in spreadsheet applications
http://www.bom.gov.au/fwo/IDN60701/IDN60701.95749.axf

JavaScript Object Notation format (JSON) in row-major order
http://www.bom.gov.au/fwo/IDN60701/IDN60701.95749.json